createdAt,value
2018-10-21T00:00:44.280Z,1025.46
2018-10-21T00:01:44.327Z,1025.45
2018-10-21T00:02:44.333Z,1025.44
2018-10-21T00:03:44.355Z,1025.42
2018-10-21T00:04:44.381Z,1025.41
2018-10-21T00:05:44.407Z,1025.39
2018-10-21T00:06:44.425Z,1025.42
2018-10-21T00:07:44.463Z,1025.43
2018-10-21T00:08:44.503Z,1025.44
2018-10-21T00:09:44.497Z,1025.49
2018-10-21T00:10:44.530Z,1025.50
2018-10-21T00:11:44.544Z,1025.50
2018-10-21T00:12:44.570Z,1025.50
2018-10-21T00:13:44.598Z,1025.51
2018-10-21T00:14:44.618Z,1025.53
2018-10-21T00:15:44.742Z,1025.54
2018-10-21T00:16:44.668Z,1025.54
2018-10-21T00:17:44.686Z,1025.51
2018-10-21T00:18:44.719Z,1025.55
2018-10-21T00:19:44.742Z,1025.49
2018-10-21T00:20:44.764Z,1025.49
2018-10-21T00:21:44.786Z,1025.52
2018-10-21T00:22:44.812Z,1025.48
2018-10-21T00:23:44.844Z,1025.48
2018-10-21T00:24:44.857Z,1025.52
2018-10-21T00:25:44.878Z,1025.52
2018-10-21T00:26:44.906Z,1025.52
2018-10-21T00:27:44.947Z,1025.52
2018-10-21T00:28:44.960Z,1025.52
2018-10-21T00:29:44.979Z,1025.52
2018-10-21T00:30:44.996Z,1025.55
2018-10-21T00:31:45.051Z,1025.55
2018-10-21T00:32:45.085Z,1025.53
2018-10-21T00:33:45.069Z,1025.53
2018-10-21T00:34:45.092Z,1025.54
2018-10-21T00:35:45.123Z,1025.53
2018-10-21T00:36:45.148Z,1025.53
2018-10-21T00:37:45.194Z,1025.54
2018-10-21T00:38:45.193Z,1025.52
2018-10-21T00:39:45.216Z,1025.58
2018-10-21T00:40:45.235Z,1025.54
2018-10-21T00:41:45.265Z,1025.55
2018-10-21T00:42:45.284Z,1025.51
2018-10-21T00:43:45.309Z,1025.56
2018-10-21T00:44:45.331Z,1025.53
2018-10-21T00:45:45.357Z,1025.50
2018-10-21T00:46:45.377Z,1025.52
2018-10-21T00:47:45.412Z,1025.45
2018-10-21T00:48:45.433Z,1025.51
2018-10-21T00:49:45.474Z,1025.48
2018-10-21T00:50:45.477Z,1025.51
2018-10-21T00:51:45.506Z,1025.47
2018-10-21T00:52:45.524Z,1025.47
2018-10-21T00:53:45.554Z,1025.52
2018-10-21T00:54:45.578Z,1025.49
2018-10-21T00:55:45.596Z,1025.50
2018-10-21T00:56:45.617Z,1025.50
2018-10-21T00:57:45.644Z,1025.47
2018-10-21T00:58:45.668Z,1025.47
2018-10-21T00:59:45.692Z,1025.44
2018-10-21T01:00:45.720Z,1025.48
2018-10-21T01:01:45.736Z,1025.45
2018-10-21T01:02:45.788Z,1025.44
2018-10-21T01:03:45.790Z,1025.49
2018-10-21T01:04:45.817Z,1025.48
2018-10-21T01:05:45.836Z,1025.50
2018-10-21T01:06:45.858Z,1025.50
2018-10-21T01:07:45.884Z,1025.51
2018-10-21T01:08:45.917Z,1025.53
2018-10-21T01:09:45.964Z,1025.56
2018-10-21T01:10:45.961Z,1025.57
2018-10-21T01:11:45.983Z,1025.58
2018-10-21T01:12:46.001Z,1025.59
2018-10-21T01:13:46.063Z,1025.59
2018-10-21T01:14:46.047Z,1025.60
2018-10-21T01:15:46.079Z,1025.56
2018-10-21T01:16:46.091Z,1025.58
2018-10-21T01:17:46.123Z,1025.60
2018-10-21T01:18:46.145Z,1025.59
2018-10-21T01:19:46.165Z,1025.58
2018-10-21T01:20:46.206Z,1025.58
2018-10-21T01:21:46.237Z,1025.59
2018-10-21T01:22:46.242Z,1025.56
2018-10-21T01:23:46.270Z,1025.59
2018-10-21T01:24:46.286Z,1025.56
2018-10-21T01:25:46.308Z,1025.54
2018-10-21T01:26:46.356Z,1025.57
2018-10-21T01:27:46.356Z,1025.55
2018-10-21T01:28:46.399Z,1025.51
2018-10-21T01:29:46.416Z,1025.54
2018-10-21T01:30:46.436Z,1025.50
2018-10-21T01:31:46.458Z,1025.54
2018-10-21T01:32:46.495Z,1025.53
2018-10-21T01:33:46.500Z,1025.48
2018-10-21T01:34:46.528Z,1025.49
2018-10-21T01:35:46.549Z,1025.49
2018-10-21T01:36:46.600Z,1025.47
2018-10-21T01:37:46.656Z,1025.46
2018-10-21T01:38:46.659Z,1025.44
2018-10-21T01:39:46.647Z,1025.43
2018-10-21T01:40:46.671Z,1025.43
2018-10-21T01:41:46.690Z,1025.45
2018-10-21T01:42:46.717Z,1025.42
2018-10-21T01:43:46.736Z,1025.42
2018-10-21T01:44:46.761Z,1025.40
2018-10-21T01:45:46.790Z,1025.41
2018-10-21T01:46:46.809Z,1025.38
2018-10-21T01:47:46.839Z,1025.38
2018-10-21T01:48:46.855Z,1025.41
2018-10-21T01:49:46.879Z,1025.43
2018-10-21T01:50:46.907Z,1025.46
2018-10-21T01:51:46.939Z,1025.44
2018-10-21T01:52:46.955Z,1025.39
2018-10-21T01:53:46.976Z,1025.40
2018-10-21T01:54:46.999Z,1025.35
2018-10-21T01:55:47.021Z,1025.39
2018-10-21T01:56:47.043Z,1025.34
2018-10-21T01:57:47.068Z,1025.33
2018-10-21T01:58:47.095Z,1025.37
2018-10-21T01:59:47.116Z,1025.34
2018-10-21T02:00:47.142Z,1025.33
2018-10-21T02:01:47.170Z,1025.32
2018-10-21T02:02:47.198Z,1025.30
2018-10-21T02:03:47.210Z,1025.36
2018-10-21T02:04:47.236Z,1025.35
2018-10-21T02:05:47.262Z,1025.36
2018-10-21T02:06:47.280Z,1025.37
2018-10-21T02:07:47.316Z,1025.37
2018-10-21T02:08:47.336Z,1025.34
2018-10-21T02:09:47.356Z,1025.32
2018-10-21T02:10:47.379Z,1025.35
2018-10-21T02:11:47.421Z,1025.35
2018-10-21T02:12:47.424Z,1025.30
2018-10-21T02:13:47.481Z,1025.35
2018-10-21T02:14:47.469Z,1025.30
2018-10-21T02:15:47.496Z,1025.31
2018-10-21T02:16:47.523Z,1025.29
2018-10-21T02:17:47.553Z,1025.33
2018-10-21T02:18:47.571Z,1025.33
2018-10-21T02:19:47.596Z,1025.32
2018-10-21T02:20:47.615Z,1025.33
2018-10-21T02:21:47.637Z,1025.29
2018-10-21T02:22:47.661Z,1025.27
2018-10-21T02:23:47.693Z,1025.30
2018-10-21T02:24:47.706Z,1025.33
2018-10-21T02:25:47.729Z,1025.33
2018-10-21T02:26:47.804Z,1025.38
2018-10-21T02:27:47.780Z,1025.37
2018-10-21T02:28:47.810Z,1025.39
2018-10-21T02:29:47.828Z,1025.40
2018-10-21T02:30:47.865Z,1025.39
2018-10-21T02:31:47.884Z,1025.39
2018-10-21T02:32:47.916Z,1025.38
2018-10-21T02:33:47.933Z,1025.40
2018-10-21T02:34:47.944Z,1025.42
2018-10-21T02:35:47.984Z,1025.39
2018-10-21T02:36:47.993Z,1025.41
2018-10-21T02:37:48.036Z,1025.43
2018-10-21T02:38:48.038Z,1025.43
2018-10-21T02:39:48.066Z,1025.44
2018-10-21T02:40:48.085Z,1025.44
2018-10-21T02:41:48.122Z,1025.45
2018-10-21T02:42:48.138Z,1025.44
2018-10-21T02:43:48.166Z,1025.43
2018-10-21T02:44:48.185Z,1025.44
2018-10-21T02:45:48.208Z,1025.47
2018-10-21T02:46:48.227Z,1025.46
2018-10-21T02:47:48.263Z,1025.48
2018-10-21T02:48:48.285Z,1025.51
2018-10-21T02:49:48.307Z,1025.55
2018-10-21T02:50:48.329Z,1025.54
2018-10-21T02:51:48.355Z,1025.52
2018-10-21T02:52:48.368Z,1025.50
2018-10-21T02:53:48.391Z,1025.49
2018-10-21T02:54:48.430Z,1025.50
2018-10-21T02:55:48.446Z,1025.49
2018-10-21T02:56:48.479Z,1025.51
2018-10-21T02:57:48.491Z,1025.51
2018-10-21T02:58:48.512Z,1025.51
2018-10-21T02:59:48.532Z,1025.53
2018-10-21T03:00:48.559Z,1025.56
2018-10-21T03:01:48.585Z,1025.59
2018-10-21T03:02:48.612Z,1025.61
2018-10-21T03:03:48.636Z,1025.60
2018-10-21T03:04:48.676Z,1025.60
2018-10-21T03:05:48.694Z,1025.60
2018-10-21T03:06:48.753Z,1025.60
2018-10-21T03:07:48.724Z,1025.60
2018-10-21T03:08:48.781Z,1025.60
2018-10-21T03:09:48.773Z,1025.62
2018-10-21T03:10:48.800Z,1025.60
2018-10-21T03:11:48.866Z,1025.60
2018-10-21T03:12:48.850Z,1025.60
2018-10-21T03:13:48.885Z,1025.61
2018-10-21T03:14:48.885Z,1025.61
2018-10-21T03:15:48.946Z,1025.61
2018-10-21T03:16:48.941Z,1025.62
2018-10-21T03:17:48.961Z,1025.59
2018-10-21T03:18:48.993Z,1025.60
2018-10-21T03:19:49.028Z,1025.61
2018-10-21T03:20:49.036Z,1025.58
2018-10-21T03:21:49.051Z,1025.62
2018-10-21T03:22:49.085Z,1025.61
2018-10-21T03:23:49.134Z,1025.59
2018-10-21T03:24:49.156Z,1025.59
2018-10-21T03:25:49.150Z,1025.62
2018-10-21T03:26:49.179Z,1025.60
2018-10-21T03:27:49.195Z,1025.60
2018-10-21T03:28:49.228Z,1025.60
2018-10-21T03:29:49.250Z,1025.58
2018-10-21T03:30:49.266Z,1025.61
2018-10-21T03:31:49.298Z,1025.60
2018-10-21T03:32:49.388Z,1025.61
2018-10-21T03:33:49.416Z,1025.57
2018-10-21T03:34:49.363Z,1025.61
2018-10-21T03:35:49.382Z,1025.67
2018-10-21T03:36:49.404Z,1025.63
2018-10-21T03:37:49.428Z,1025.70
2018-10-21T03:38:49.462Z,1025.71
2018-10-21T03:39:49.474Z,1025.72
2018-10-21T03:40:49.496Z,1025.73
2018-10-21T03:41:49.526Z,1025.74
2018-10-21T03:42:49.546Z,1025.77
2018-10-21T03:43:49.573Z,1025.78
2018-10-21T03:44:49.605Z,1025.78
2018-10-21T03:45:49.622Z,1025.77
2018-10-21T03:46:49.639Z,1025.77
2018-10-21T03:47:49.671Z,1025.77
2018-10-21T03:48:49.695Z,1025.78
2018-10-21T03:49:49.710Z,1025.80
2018-10-21T03:50:49.739Z,1025.85
2018-10-21T03:51:49.757Z,1025.82
2018-10-21T03:52:49.783Z,1025.83
2018-10-21T03:53:49.809Z,1025.84
2018-10-21T03:54:49.824Z,1025.88
2018-10-21T03:55:49.859Z,1025.87
2018-10-21T03:56:49.881Z,1025.87
2018-10-21T03:57:49.910Z,1025.84
2018-10-21T03:58:49.920Z,1025.89
2018-10-21T03:59:49.951Z,1025.84
2018-10-21T04:00:49.994Z,1025.89
2018-10-21T04:01:49.997Z,1025.88
2018-10-21T04:02:50.015Z,1025.94
2018-10-21T04:03:50.046Z,1025.93
2018-10-21T04:04:50.074Z,1025.89
2018-10-21T04:05:50.101Z,1025.94
2018-10-21T04:06:50.116Z,1025.87
2018-10-21T04:07:50.142Z,1025.90
2018-10-21T04:08:50.157Z,1025.92
2018-10-21T04:09:50.193Z,1025.90
2018-10-21T04:10:50.207Z,1025.92
2018-10-21T04:11:50.232Z,1025.88
2018-10-21T04:12:50.260Z,1025.88
2018-10-21T04:13:50.282Z,1025.89
2018-10-21T04:14:50.338Z,1025.90
2018-10-21T04:15:50.326Z,1025.90
2018-10-21T04:16:50.352Z,1025.90
2018-10-21T04:17:50.370Z,1025.89
2018-10-21T04:18:50.394Z,1025.89
2018-10-21T04:19:50.422Z,1025.87
2018-10-21T04:20:50.448Z,1025.95
2018-10-21T04:21:50.460Z,1025.95
2018-10-21T04:22:50.495Z,1025.99
2018-10-21T04:23:50.514Z,1025.98
2018-10-21T04:24:50.534Z,1026.00
2018-10-21T04:25:50.577Z,1026.01
2018-10-21T04:26:50.583Z,1025.99
2018-10-21T04:27:50.599Z,1026.00
2018-10-21T04:28:50.637Z,1026.01
2018-10-21T04:29:51.465Z,1026.03
2018-10-21T04:30:50.673Z,1026.01
2018-10-21T04:31:50.691Z,1026.03
2018-10-21T04:32:50.727Z,1026.06
2018-10-21T04:33:50.739Z,1026.07
2018-10-21T04:34:50.770Z,1026.05
2018-10-21T04:35:50.796Z,1026.04
2018-10-21T04:36:50.807Z,1026.04
2018-10-21T04:37:50.835Z,1025.99
2018-10-21T04:38:50.865Z,1025.95
2018-10-21T04:39:50.883Z,1025.95
2018-10-21T04:40:50.898Z,1025.93
2018-10-21T04:41:50.934Z,1025.94
2018-10-21T04:42:50.944Z,1025.93
2018-10-21T04:43:50.980Z,1025.90
2018-10-21T04:44:51.016Z,1025.93
2018-10-21T04:45:51.022Z,1025.92
2018-10-21T04:46:51.120Z,1025.91
2018-10-21T04:47:51.066Z,1025.90
2018-10-21T04:48:51.089Z,1025.84
2018-10-21T04:49:51.117Z,1025.85
2018-10-21T04:50:51.137Z,1025.83
2018-10-21T04:51:51.155Z,1025.85
2018-10-21T04:52:51.179Z,1025.82
2018-10-21T04:53:51.203Z,1025.82
2018-10-21T04:54:51.231Z,1025.84
2018-10-21T04:55:51.251Z,1025.81
2018-10-21T04:56:51.281Z,1025.81
2018-10-21T04:57:51.303Z,1025.77
2018-10-21T04:58:51.319Z,1025.78
2018-10-21T04:59:51.360Z,1025.81
2018-10-21T05:00:51.438Z,1025.75
2018-10-21T05:01:51.393Z,1025.74
2018-10-21T05:02:51.412Z,1025.72
2018-10-21T05:03:51.433Z,1025.72
2018-10-21T05:04:51.463Z,1025.69
2018-10-21T05:05:51.489Z,1025.66
2018-10-21T05:06:51.513Z,1025.73
2018-10-21T05:07:51.541Z,1025.73
2018-10-21T05:08:51.564Z,1025.76
2018-10-21T05:09:51.578Z,1025.73
2018-10-21T05:10:51.605Z,1025.74
2018-10-21T05:11:51.627Z,1025.74
2018-10-21T05:12:51.643Z,1025.80
2018-10-21T05:13:51.674Z,1025.78
2018-10-21T05:14:51.690Z,1025.79
2018-10-21T05:15:51.722Z,1025.80
2018-10-21T05:16:51.742Z,1025.80
2018-10-21T05:17:51.760Z,1025.80
2018-10-21T05:18:51.784Z,1025.83
2018-10-21T05:19:51.806Z,1025.83
2018-10-21T05:20:51.834Z,1025.83
2018-10-21T05:21:51.858Z,1025.89
2018-10-21T05:22:51.876Z,1025.83
2018-10-21T05:23:51.939Z,1025.87
2018-10-21T05:24:51.924Z,1025.85
2018-10-21T05:25:51.944Z,1025.89
2018-10-21T05:26:51.968Z,1025.85
2018-10-21T05:27:52.017Z,1025.87
2018-10-21T05:28:52.013Z,1025.87
2018-10-21T05:29:52.042Z,1025.87
2018-10-21T05:30:52.061Z,1025.87
2018-10-21T05:31:52.087Z,1025.89
2018-10-21T05:32:52.107Z,1025.89
2018-10-21T05:33:52.145Z,1025.93
2018-10-21T05:34:52.154Z,1025.94
2018-10-21T05:35:52.175Z,1025.91
2018-10-21T05:36:52.203Z,1025.92
2018-10-21T05:37:52.259Z,1026.00
2018-10-21T05:38:52.249Z,1025.97
2018-10-21T05:39:52.276Z,1025.99
2018-10-21T05:40:52.298Z,1026.01
2018-10-21T05:41:52.316Z,1026.00
2018-10-21T05:42:52.340Z,1025.99
2018-10-21T05:43:52.366Z,1026.01
2018-10-21T05:44:52.397Z,1025.99
2018-10-21T05:45:52.432Z,1026.04
2018-10-21T05:46:52.525Z,1025.98
2018-10-21T05:47:52.452Z,1025.99
2018-10-21T05:48:52.482Z,1025.92
2018-10-21T05:49:52.502Z,1025.96
2018-10-21T05:50:52.526Z,1025.96
2018-10-21T05:51:52.552Z,1025.98
2018-10-21T05:52:52.574Z,1025.98
2018-10-21T05:53:52.599Z,1025.99
2018-10-21T05:54:52.617Z,1026.00
2018-10-21T05:55:52.651Z,1025.98
2018-10-21T05:56:52.668Z,1026.03
2018-10-21T05:57:52.695Z,1025.99
2018-10-21T05:58:52.709Z,1026.01
2018-10-21T05:59:52.735Z,1026.03
2018-10-21T06:00:52.765Z,1026.07
2018-10-21T06:01:52.779Z,1026.05
2018-10-21T06:02:52.816Z,1026.05
2018-10-21T06:03:52.825Z,1026.07
2018-10-21T06:04:52.849Z,1026.04
2018-10-21T06:05:52.872Z,1026.11
2018-10-21T06:06:52.895Z,1026.09
2018-10-21T06:07:52.919Z,1026.11
2018-10-21T06:08:52.952Z,1026.12
2018-10-21T06:09:52.966Z,1026.14
2018-10-21T06:10:52.992Z,1026.13
2018-10-21T06:11:53.019Z,1026.19
2018-10-21T06:12:53.034Z,1026.15
2018-10-21T06:13:53.068Z,1026.15
2018-10-21T06:14:53.080Z,1026.15
2018-10-21T06:15:53.157Z,1026.12
2018-10-21T06:16:53.122Z,1026.14
2018-10-21T06:17:53.169Z,1026.14
2018-10-21T06:18:53.174Z,1026.15
2018-10-21T06:19:53.196Z,1026.20
2018-10-21T06:20:53.219Z,1026.18
2018-10-21T06:21:53.256Z,1026.17
2018-10-21T06:22:53.266Z,1026.19
2018-10-21T06:23:53.312Z,1026.23
2018-10-21T06:24:53.324Z,1026.19
2018-10-21T06:25:53.340Z,1026.17
2018-10-21T06:26:53.363Z,1026.16
2018-10-21T06:27:53.381Z,1026.24
2018-10-21T06:28:53.413Z,1026.24
2018-10-21T06:29:53.429Z,1026.25
2018-10-21T06:30:53.461Z,1026.29
2018-10-21T06:31:53.475Z,1026.31
2018-10-21T06:32:53.534Z,1026.29
2018-10-21T06:33:53.521Z,1026.36
2018-10-21T06:34:53.553Z,1026.39
2018-10-21T06:35:53.562Z,1026.42
2018-10-21T06:36:53.637Z,1026.41
2018-10-21T06:37:53.621Z,1026.44
2018-10-21T06:38:53.674Z,1026.44
2018-10-21T06:39:53.666Z,1026.45
2018-10-21T06:40:53.677Z,1026.47
2018-10-21T06:41:53.697Z,1026.49
2018-10-21T06:42:53.726Z,1026.46
2018-10-21T06:43:53.770Z,1026.49
2018-10-21T06:44:53.814Z,1026.52
2018-10-21T06:45:53.806Z,1026.53
2018-10-21T06:46:53.824Z,1026.55
2018-10-21T06:47:53.844Z,1026.55
2018-10-21T06:48:53.860Z,1026.56
2018-10-21T06:49:53.902Z,1026.59
2018-10-21T06:50:53.922Z,1026.55
2018-10-21T06:51:53.952Z,1026.60
2018-10-21T06:52:53.960Z,1026.60
2018-10-21T06:53:53.990Z,1026.64
2018-10-21T06:54:54.003Z,1026.59
2018-10-21T06:55:54.045Z,1026.59
2018-10-21T06:56:54.096Z,1026.60
2018-10-21T06:57:54.071Z,1026.61
2018-10-21T06:58:54.103Z,1026.64
2018-10-21T06:59:54.138Z,1026.62
2018-10-21T07:00:54.145Z,1026.65
2018-10-21T07:01:54.160Z,1026.69
2018-10-21T07:02:54.195Z,1026.66
2018-10-21T07:03:54.216Z,1026.67
2018-10-21T07:04:54.276Z,1026.68
2018-10-21T07:05:54.256Z,1026.67
2018-10-21T07:06:54.279Z,1026.68
2018-10-21T07:07:54.300Z,1026.70
2018-10-21T07:08:54.328Z,1026.67
2018-10-21T07:09:54.358Z,1026.71
2018-10-21T07:10:54.369Z,1026.71
2018-10-21T07:11:54.391Z,1026.67
2018-10-21T07:12:54.416Z,1026.69
2018-10-21T07:13:54.443Z,1026.72
2018-10-21T07:14:54.463Z,1026.69
2018-10-21T07:15:54.547Z,1026.72
2018-10-21T07:16:54.510Z,1026.74
2018-10-21T07:17:54.532Z,1026.80
2018-10-21T07:18:54.562Z,1026.78
2018-10-21T07:19:54.582Z,1026.76
2018-10-21T07:20:54.602Z,1026.76
2018-10-21T07:21:54.687Z,1026.77
2018-10-21T07:22:54.657Z,1026.76
2018-10-21T07:23:54.697Z,1026.78
2018-10-21T07:24:54.694Z,1026.81
2018-10-21T07:25:54.729Z,1026.80
2018-10-21T07:26:54.745Z,1026.84
2018-10-21T07:27:54.832Z,1026.86
2018-10-21T07:28:54.798Z,1026.87
2018-10-21T07:29:54.810Z,1026.91
2018-10-21T07:30:54.839Z,1026.92
2018-10-21T07:31:54.877Z,1026.92
2018-10-21T07:32:54.881Z,1026.92
2018-10-21T07:33:54.974Z,1026.94
2018-10-21T07:34:54.940Z,1026.91
2018-10-21T07:35:54.957Z,1026.96
2018-10-21T07:36:54.976Z,1026.98
2018-10-21T07:37:55.017Z,1027.00
2018-10-21T07:38:55.027Z,1027.03
2018-10-21T07:39:55.113Z,1027.05
2018-10-21T07:40:55.084Z,1027.03
2018-10-21T07:41:55.098Z,1027.06
2018-10-21T07:42:55.114Z,1027.04
2018-10-21T07:43:55.143Z,1027.03
2018-10-21T07:44:55.168Z,1027.04
2018-10-21T07:45:55.204Z,1027.01
2018-10-21T07:46:55.226Z,1027.02
2018-10-21T07:47:55.238Z,1027.00
2018-10-21T07:48:55.303Z,1027.02
2018-10-21T07:49:55.276Z,1027.04
2018-10-21T07:50:55.308Z,1027.04
2018-10-21T07:51:55.363Z,1027.05
2018-10-21T07:52:55.342Z,1027.06
2018-10-21T07:53:55.386Z,1027.04
2018-10-21T07:54:55.397Z,1027.06
2018-10-21T07:55:55.420Z,1027.03
2018-10-21T07:56:55.449Z,1027.02
2018-10-21T07:57:55.471Z,1027.03
2018-10-21T07:58:55.487Z,1027.00
2018-10-21T07:59:55.529Z,1027.02
2018-10-21T08:00:55.546Z,1027.02
2018-10-21T08:01:55.555Z,1027.02
2018-10-21T08:02:55.580Z,1027.02
2018-10-21T08:03:55.658Z,1027.02
2018-10-21T08:04:55.623Z,1027.00
2018-10-21T08:05:55.667Z,1027.02
2018-10-21T08:06:55.668Z,1027.04
2018-10-21T08:07:55.697Z,1027.02
2018-10-21T08:08:55.717Z,1027.02
2018-10-21T08:09:55.744Z,1027.03
2018-10-21T08:10:55.773Z,1027.01
2018-10-21T08:11:55.793Z,1027.03
2018-10-21T08:12:55.814Z,1027.03
2018-10-21T08:13:55.831Z,1027.04
2018-10-21T08:14:55.902Z,1027.04
2018-10-21T08:15:55.887Z,1027.05
2018-10-21T08:16:55.914Z,1027.02
2018-10-21T08:17:55.926Z,1027.04
2018-10-21T08:18:55.948Z,1027.07
2018-10-21T08:19:55.991Z,1027.08
2018-10-21T08:20:55.996Z,1027.06
2018-10-21T08:21:56.056Z,1027.06
2018-10-21T08:22:56.050Z,1027.06
2018-10-21T08:23:56.064Z,1027.08
2018-10-21T08:24:56.089Z,1027.08
2018-10-21T08:25:56.138Z,1027.06
2018-10-21T08:26:56.138Z,1027.07
2018-10-21T08:27:56.225Z,1027.11
2018-10-21T08:28:56.181Z,1027.08
2018-10-21T08:29:56.208Z,1027.05
2018-10-21T08:30:56.226Z,1027.02
2018-10-21T08:31:56.271Z,1027.02
2018-10-21T08:32:56.283Z,1027.00
2018-10-21T08:33:56.375Z,1027.01
2018-10-21T08:34:56.323Z,1027.02
2018-10-21T08:35:56.426Z,1027.03
2018-10-21T08:36:56.368Z,1027.03
2018-10-21T08:37:56.395Z,1027.02
2018-10-21T08:38:56.420Z,1027.05
2018-10-21T08:39:56.485Z,1027.05
2018-10-21T08:40:56.468Z,1027.05
2018-10-21T08:41:56.489Z,1027.02
2018-10-21T08:42:56.512Z,1027.07
2018-10-21T08:43:56.533Z,1027.10
2018-10-21T08:44:56.564Z,1027.11
2018-10-21T08:45:56.606Z,1027.18
2018-10-21T08:46:56.616Z,1027.17
2018-10-21T08:47:56.626Z,1027.19
2018-10-21T08:48:56.661Z,1027.21
2018-10-21T08:49:56.688Z,1027.24
2018-10-21T08:50:56.693Z,1027.23
2018-10-21T08:51:56.739Z,1027.22
2018-10-21T08:52:56.762Z,1027.19
2018-10-21T08:53:56.764Z,1027.20
2018-10-21T08:54:56.805Z,1027.19
2018-10-21T08:55:56.948Z,1027.22
2018-10-21T08:56:56.834Z,1027.21
2018-10-21T08:57:56.891Z,1027.21
2018-10-21T08:58:56.882Z,1027.21
2018-10-21T08:59:56.907Z,1027.24
2018-10-21T09:00:56.953Z,1027.20
2018-10-21T09:01:56.966Z,1027.21
2018-10-21T09:02:56.975Z,1027.17
2018-10-21T09:03:57.058Z,1027.16
2018-10-21T09:04:57.024Z,1027.15
2018-10-21T09:05:57.057Z,1027.14
2018-10-21T09:06:57.082Z,1027.13
2018-10-21T09:07:57.104Z,1027.11
2018-10-21T09:08:57.119Z,1027.13
2018-10-21T09:09:57.279Z,1027.12
2018-10-21T09:10:57.182Z,1027.14
2018-10-21T09:11:57.191Z,1027.16
2018-10-21T09:12:57.259Z,1027.15
2018-10-21T09:13:57.247Z,1027.15
2018-10-21T09:14:57.348Z,1027.16
2018-10-21T09:15:57.288Z,1027.16
2018-10-21T09:16:57.315Z,1027.20
2018-10-21T09:17:57.346Z,1027.17
2018-10-21T09:18:57.355Z,1027.18
2018-10-21T09:19:57.397Z,1027.13
2018-10-21T09:20:57.407Z,1027.15
2018-10-21T09:21:57.509Z,1027.11
2018-10-21T09:22:57.456Z,1027.14
2018-10-21T09:23:57.467Z,1027.08
2018-10-21T09:24:57.551Z,1027.10
2018-10-21T09:25:57.520Z,1027.11
2018-10-21T09:26:57.626Z,1027.10
2018-10-21T09:27:57.575Z,1027.10
2018-10-21T09:28:57.585Z,1027.11
2018-10-21T09:29:57.609Z,1027.09
2018-10-21T09:30:57.663Z,1027.08
2018-10-21T09:31:57.654Z,1027.06
2018-10-21T09:32:57.687Z,1027.09
2018-10-21T09:33:57.725Z,1027.06
2018-10-21T09:34:57.742Z,1027.07
2018-10-21T09:35:57.753Z,1027.08
2018-10-21T09:36:57.873Z,1027.08
2018-10-21T09:37:57.802Z,1027.06
2018-10-21T09:38:57.832Z,1027.04
2018-10-21T09:39:57.866Z,1027.05
2018-10-21T09:40:57.867Z,1027.04
2018-10-21T09:41:57.901Z,1027.04
2018-10-21T09:42:57.950Z,1027.04
2018-10-21T09:43:57.945Z,1027.06
2018-10-21T09:44:57.963Z,1027.06
2018-10-21T09:45:58.027Z,1027.09
2018-10-21T09:46:58.011Z,1027.11
2018-10-21T09:47:58.039Z,1027.12
2018-10-21T09:48:58.065Z,1027.06
2018-10-21T09:49:58.101Z,1027.10
2018-10-21T09:50:58.112Z,1027.07
2018-10-21T09:51:58.137Z,1027.07
2018-10-21T09:52:58.155Z,1027.13
2018-10-21T09:53:58.209Z,1027.13
2018-10-21T09:54:58.226Z,1027.11
2018-10-21T09:55:58.234Z,1027.10
2018-10-21T09:56:58.268Z,1027.05
2018-10-21T09:57:58.327Z,1027.09
2018-10-21T09:58:58.316Z,1027.12
2018-10-21T09:59:58.342Z,1027.10
2018-10-21T10:00:58.421Z,1027.10
2018-10-21T10:01:58.380Z,1027.11
2018-10-21T10:02:58.420Z,1027.10
2018-10-21T10:03:58.495Z,1027.08
2018-10-21T10:04:58.511Z,1027.04
2018-10-21T10:05:58.486Z,1027.02
2018-10-21T10:06:58.555Z,1027.05
2018-10-21T10:07:58.546Z,1027.01
2018-10-21T10:08:58.560Z,1026.99
2018-10-21T10:09:58.618Z,1027.00
2018-10-21T10:10:58.619Z,1026.99
2018-10-21T10:11:58.654Z,1027.01
2018-10-21T10:12:58.670Z,1026.99
2018-10-21T10:13:58.702Z,1026.99
2018-10-21T10:14:58.723Z,1026.96
2018-10-21T10:15:58.795Z,1027.00
2018-10-21T10:16:58.772Z,1026.95
2018-10-21T10:17:58.802Z,1026.97
2018-10-21T10:18:58.885Z,1026.95
2018-10-21T10:19:58.852Z,1026.95
2018-10-21T10:20:58.892Z,1026.88
2018-10-21T10:21:58.951Z,1026.84
2018-10-21T10:22:58.940Z,1026.82
2018-10-21T10:23:59.052Z,1026.85
2018-10-21T10:24:59.019Z,1026.88
2018-10-21T10:25:59.032Z,1026.87
2018-10-21T10:26:59.043Z,1026.87
2018-10-21T10:27:59.129Z,1026.86
2018-10-21T10:28:59.104Z,1026.83
2018-10-21T10:29:59.127Z,1026.81
2018-10-21T10:30:59.242Z,1026.77
2018-10-21T10:31:59.179Z,1026.77
2018-10-21T10:32:59.218Z,1026.73
2018-10-21T10:33:59.250Z,1026.75
2018-10-21T10:34:59.263Z,1026.71
2018-10-21T10:35:59.298Z,1026.73
2018-10-21T10:36:59.370Z,1026.74
2018-10-21T10:37:59.351Z,1026.74
2018-10-21T10:38:59.389Z,1026.70
2018-10-21T10:39:59.468Z,1026.69
2018-10-21T10:40:59.448Z,1026.70
2018-10-21T10:41:59.658Z,1026.67
2018-10-21T10:42:59.488Z,1026.62
2018-10-21T10:43:59.519Z,1026.63
2018-10-21T10:44:59.530Z,1026.61
2018-10-21T10:45:59.621Z,1026.59
2018-10-21T10:46:59.594Z,1026.58
2018-10-21T10:47:59.613Z,1026.58
2018-10-21T10:48:59.663Z,1026.53
2018-10-21T10:49:59.662Z,1026.54
2018-10-21T10:50:59.694Z,1026.56
2018-10-21T10:51:59.780Z,1026.52
2018-10-21T10:52:59.812Z,1026.52
2018-10-21T10:53:59.774Z,1026.50
2018-10-21T10:54:59.854Z,1026.55
2018-10-21T10:55:59.818Z,1026.50
2018-10-21T10:56:59.850Z,1026.47
2018-10-21T10:57:59.881Z,1026.51
2018-10-21T10:58:59.964Z,1026.52
2018-10-21T11:00:00.158Z,1026.48
2018-10-21T11:00:59.966Z,1026.45
2018-10-21T11:01:59.977Z,1026.45
2018-10-21T11:03:00.025Z,1026.48
2018-10-21T11:04:00.031Z,1026.42
2018-10-21T11:05:00.051Z,1026.45
2018-10-21T11:06:00.093Z,1026.45
2018-10-21T11:07:00.138Z,1026.40
2018-10-21T11:08:00.129Z,1026.38
2018-10-21T11:09:00.162Z,1026.35
2018-10-21T11:10:00.221Z,1026.34
2018-10-21T11:11:00.212Z,1026.34
2018-10-21T11:12:00.238Z,1026.32
2018-10-21T11:13:00.287Z,1026.32
2018-10-21T11:14:00.302Z,1026.31
2018-10-21T11:15:00.306Z,1026.28
2018-10-21T11:16:00.402Z,1026.27
2018-10-21T11:17:00.366Z,1026.29
2018-10-21T11:18:00.382Z,1026.29
2018-10-21T11:19:00.413Z,1026.29
2018-10-21T11:20:00.448Z,1026.31
2018-10-21T11:21:00.458Z,1026.27
2018-10-21T11:22:00.554Z,1026.24
2018-10-21T11:23:00.508Z,1026.23
2018-10-21T11:24:00.535Z,1026.20
2018-10-21T11:25:00.562Z,1026.22
2018-10-21T11:26:00.589Z,1026.26
2018-10-21T11:27:00.628Z,1026.28
2018-10-21T11:28:00.641Z,1026.27
2018-10-21T11:29:00.662Z,1026.28
2018-10-21T11:30:00.688Z,1026.26
2018-10-21T11:31:00.756Z,1026.28
2018-10-21T11:32:00.736Z,1026.29
2018-10-21T11:33:00.771Z,1026.30
2018-10-21T11:34:00.825Z,1026.27
2018-10-21T11:35:00.810Z,1026.27
2018-10-21T11:36:00.838Z,1026.27
2018-10-21T11:37:00.884Z,1026.25
2018-10-21T11:38:00.892Z,1026.26
2018-10-21T11:39:00.929Z,1026.24
2018-10-21T11:40:01.001Z,1026.23
2018-10-21T11:41:00.965Z,1026.20
2018-10-21T11:42:01.005Z,1026.20
2018-10-21T11:43:01.051Z,1026.21
2018-10-21T11:44:01.068Z,1026.19
2018-10-21T11:45:01.062Z,1026.18
2018-10-21T11:46:01.180Z,1026.19
2018-10-21T11:47:01.114Z,1026.21
2018-10-21T11:48:01.154Z,1026.16
2018-10-21T11:49:01.240Z,1026.22
2018-10-21T11:50:01.198Z,1026.18
2018-10-21T11:51:01.217Z,1026.18
2018-10-21T11:52:01.267Z,1026.19
2018-10-21T11:53:01.268Z,1026.16
2018-10-21T11:54:01.300Z,1026.14
2018-10-21T11:55:01.374Z,1026.15
2018-10-21T11:56:01.344Z,1026.13
2018-10-21T11:57:01.369Z,1026.12
2018-10-21T11:58:01.448Z,1026.16
2018-10-21T11:59:01.429Z,1026.13
2018-10-21T12:00:01.499Z,1026.15
2018-10-21T12:01:01.543Z,1026.16
2018-10-21T12:02:01.492Z,1026.11
2018-10-21T12:03:01.521Z,1026.14
2018-10-21T12:04:01.570Z,1026.14
2018-10-21T12:05:01.573Z,1026.14
2018-10-21T12:06:01.599Z,1026.12